sensor_id;sensor_type;location;lat;lon;timestamp;P1;durP1;ratioP1;P2;durP2;ratioP2
6163;SDS011;3114;48.362;10.994;2023-06-26T00:01:58;8.23;;;6.57;;
6163;SDS011;3114;48.362;10.994;2023-06-26T00:04:25;6.65;;;5.95;;
6163;SDS011;3114;48.362;10.994;2023-06-26T00:06:53;7.78;;;6.07;;
6163;SDS011;3114;48.362;10.994;2023-06-26T00:09:21;8.70;;;6.82;;
6163;SDS011;3114;48.362;10.994;2023-06-26T00:11:48;9.13;;;6.53;;
6163;SDS011;3114;48.362;10.994;2023-06-26T00:14:16;7.65;;;6.25;;
6163;SDS011;3114;48.362;10.994;2023-06-26T00:16:44;6.80;;;5.97;;
6163;SDS011;3114;48.362;10.994;2023-06-26T00:19:11;6.60;;;5.85;;
6163;SDS011;3114;48.362;10.994;2023-06-26T00:21:38;10.82;;;6.78;;
6163;SDS011;3114;48.362;10.994;2023-06-26T00:24:05;8.48;;;6.60;;
6163;SDS011;3114;48.362;10.994;2023-06-26T00:26:32;9.32;;;6.95;;
6163;SDS011;3114;48.362;10.994;2023-06-26T00:28:59;9.00;;;7.15;;
6163;SDS011;3114;48.362;10.994;2023-06-26T00:31:27;9.68;;;6.78;;
6163;SDS011;3114;48.362;10.994;2023-06-26T00:33:54;8.57;;;7.20;;
6163;SDS011;3114;48.362;10.994;2023-06-26T00:36:21;10.10;;;6.93;;
6163;SDS011;3114;48.362;10.994;2023-06-26T00:38:48;9.82;;;6.93;;
6163;SDS011;3114;48.362;10.994;2023-06-26T00:41:15;7.57;;;6.60;;
6163;SDS011;3114;48.362;10.994;2023-06-26T00:43:42;10.20;;;6.82;;
6163;SDS011;3114;48.362;10.994;2023-06-26T00:46:10;9.20;;;7.18;;
6163;SDS011;3114;48.362;10.994;2023-06-26T00:48:41;9.27;;;6.90;;
6163;SDS011;3114;48.362;10.994;2023-06-26T00:51:08;7.97;;;6.50;;
6163;SDS011;3114;48.362;10.994;2023-06-26T00:53:35;8.82;;;6.40;;
6163;SDS011;3114;48.362;10.994;2023-06-26T00:56:03;9.43;;;6.97;;
6163;SDS011;3114;48.362;10.994;2023-06-26T00:58:31;8.63;;;6.70;;
6163;SDS011;3114;48.362;10.994;2023-06-26T01:00:58;7.63;;;6.55;;
6163;SDS011;3114;48.362;10.994;2023-06-26T01:03:26;9.05;;;7.13;;
6163;SDS011;3114;48.362;10.994;2023-06-26T01:05:54;10.60;;;7.15;;
6163;SDS011;3114;48.362;10.994;2023-06-26T01:08:24;8.07;;;6.53;;
6163;SDS011;3114;48.362;10.994;2023-06-26T01:10:52;9.05;;;6.85;;
6163;SDS011;3114;48.362;10.994;2023-06-26T01:13:19;9.65;;;6.78;;
6163;SDS011;3114;48.362;10.994;2023-06-26T01:15:47;8.85;;;6.90;;
6163;SDS011;3114;48.362;10.994;2023-06-26T01:18:15;7.22;;;6.35;;
6163;SDS011;3114;48.362;10.994;2023-06-26T01:20:42;8.93;;;6.60;;
6163;SDS011;3114;48.362;10.994;2023-06-26T01:23:14;7.22;;;6.45;;
6163;SDS011;3114;48.362;10.994;2023-06-26T01:25:51;10.15;;;6.97;;
6163;SDS011;3114;48.362;10.994;2023-06-26T01:28:30;8.68;;;6.78;;
6163;SDS011;3114;48.362;10.994;2023-06-26T01:31:00;10.35;;;6.70;;
6163;SDS011;3114;48.362;10.994;2023-06-26T01:33:28;7.72;;;6.35;;
6163;SDS011;3114;48.362;10.994;2023-06-26T01:35:56;7.93;;;6.57;;
6163;SDS011;3114;48.362;10.994;2023-06-26T01:38:22;9.60;;;6.60;;
6163;SDS011;3114;48.362;10.994;2023-06-26T01:40:51;8.02;;;6.35;;
6163;SDS011;3114;48.362;10.994;2023-06-26T01:43:20;9.35;;;6.72;;
6163;SDS011;3114;48.362;10.994;2023-06-26T01:45:54;8.55;;;6.53;;
6163;SDS011;3114;48.362;10.994;2023-06-26T01:48:26;7.47;;;6.30;;
6163;SDS011;3114;48.362;10.994;2023-06-26T01:50:57;9.02;;;6.57;;
6163;SDS011;3114;48.362;10.994;2023-06-26T01:53:30;8.13;;;6.88;;
6163;SDS011;3114;48.362;10.994;2023-06-26T01:56:04;9.90;;;7.63;;
6163;SDS011;3114;48.362;10.994;2023-06-26T01:58:34;8.00;;;6.40;;
6163;SDS011;3114;48.362;10.994;2023-06-26T02:01:04;8.00;;;6.78;;
6163;SDS011;3114;48.362;10.994;2023-06-26T02:03:31;9.60;;;6.80;;
6163;SDS011;3114;48.362;10.994;2023-06-26T02:05:58;6.88;;;6.10;;
6163;SDS011;3114;48.362;10.994;2023-06-26T02:08:25;10.13;;;6.70;;
6163;SDS011;3114;48.362;10.994;2023-06-26T02:10:52;8.60;;;6.70;;
6163;SDS011;3114;48.362;10.994;2023-06-26T02:13:19;8.57;;;6.40;;
6163;SDS011;3114;48.362;10.994;2023-06-26T02:15:46;8.63;;;6.43;;
6163;SDS011;3114;48.362;10.994;2023-06-26T02:18:14;7.43;;;6.18;;
6163;SDS011;3114;48.362;10.994;2023-06-26T02:20:41;8.55;;;6.22;;
6163;SDS011;3114;48.362;10.994;2023-06-26T02:23:09;7.53;;;6.25;;
6163;SDS011;3114;48.362;10.994;2023-06-26T02:25:36;9.27;;;6.82;;
6163;SDS011;3114;48.362;10.994;2023-06-26T02:28:03;9.50;;;6.70;;
6163;SDS011;3114;48.362;10.994;2023-06-26T02:30:30;8.30;;;6.25;;
6163;SDS011;3114;48.362;10.994;2023-06-26T02:32:57;7.72;;;6.45;;
6163;SDS011;3114;48.362;10.994;2023-06-26T02:35:25;9.32;;;6.28;;
6163;SDS011;3114;48.362;10.994;2023-06-26T02:37:52;10.13;;;6.85;;
6163;SDS011;3114;48.362;10.994;2023-06-26T02:40:19;7.28;;;6.40;;
6163;SDS011;3114;48.362;10.994;2023-06-26T02:42:46;7.45;;;6.10;;
6163;SDS011;3114;48.362;10.994;2023-06-26T02:45:13;8.77;;;6.60;;
6163;SDS011;3114;48.362;10.994;2023-06-26T02:47:40;10.52;;;6.50;;
6163;SDS011;3114;48.362;10.994;2023-06-26T02:50:07;9.30;;;6.05;;
6163;SDS011;3114;48.362;10.994;2023-06-26T02:52:36;9.18;;;6.97;;
6163;SDS011;3114;48.362;10.994;2023-06-26T02:55:04;8.35;;;6.63;;
6163;SDS011;3114;48.362;10.994;2023-06-26T02:57:31;8.95;;;6.63;;
6163;SDS011;3114;48.362;10.994;2023-06-26T02:59:58;7.97;;;6.75;;
6163;SDS011;3114;48.362;10.994;2023-06-26T03:02:25;9.13;;;6.63;;
6163;SDS011;3114;48.362;10.994;2023-06-26T03:04:52;11.25;;;6.90;;
6163;SDS011;3114;48.362;10.994;2023-06-26T03:07:19;9.35;;;7.18;;
6163;SDS011;3114;48.362;10.994;2023-06-26T03:09:47;10.07;;;6.53;;
6163;SDS011;3114;48.362;10.994;2023-06-26T03:12:13;7.90;;;6.65;;
6163;SDS011;3114;48.362;10.994;2023-06-26T03:14:40;9.63;;;6.97;;
6163;SDS011;3114;48.362;10.994;2023-06-26T03:17:08;8.10;;;6.18;;
6163;SDS011;3114;48.362;10.994;2023-06-26T03:19:34;8.38;;;6.50;;
6163;SDS011;3114;48.362;10.994;2023-06-26T03:22:01;8.23;;;6.32;;
6163;SDS011;3114;48.362;10.994;2023-06-26T03:24:29;8.30;;;6.38;;
6163;SDS011;3114;48.362;10.994;2023-06-26T03:26:57;7.72;;;6.57;;
6163;SDS011;3114;48.362;10.994;2023-06-26T03:29:24;8.90;;;6.20;;
6163;SDS011;3114;48.362;10.994;2023-06-26T03:31:51;8.23;;;6.68;;
6163;SDS011;3114;48.362;10.994;2023-06-26T03:34:17;8.23;;;6.35;;
6163;SDS011;3114;48.362;10.994;2023-06-26T03:36:45;12.18;;;6.45;;
6163;SDS011;3114;48.362;10.994;2023-06-26T03:39:11;8.88;;;6.88;;
6163;SDS011;3114;48.362;10.994;2023-06-26T03:41:38;9.13;;;6.50;;
6163;SDS011;3114;48.362;10.994;2023-06-26T03:44:07;10.70;;;6.70;;
6163;SDS011;3114;48.362;10.994;2023-06-26T03:46:33;10.15;;;7.00;;
6163;SDS011;3114;48.362;10.994;2023-06-26T03:49:00;8.55;;;6.47;;
6163;SDS011;3114;48.362;10.994;2023-06-26T03:51:28;8.55;;;6.13;;
6163;SDS011;3114;48.362;10.994;2023-06-26T03:53:55;10.57;;;7.47;;
6163;SDS011;3114;48.362;10.994;2023-06-26T03:56:22;8.77;;;6.53;;
6163;SDS011;3114;48.362;10.994;2023-06-26T03:58:49;8.15;;;6.32;;
6163;SDS011;3114;48.362;10.994;2023-06-26T04:01:17;9.18;;;6.97;;
6163;SDS011;3114;48.362;10.994;2023-06-26T04:03:45;9.63;;;6.57;;
6163;SDS011;3114;48.362;10.994;2023-06-26T04:06:11;9.20;;;6.40;;
6163;SDS011;3114;48.362;10.994;2023-06-26T04:08:38;7.88;;;5.95;;
6163;SDS011;3114;48.362;10.994;2023-06-26T04:11:05;8.73;;;6.60;;
6163;SDS011;3114;48.362;10.994;2023-06-26T04:13:32;7.60;;;6.10;;
6163;SDS011;3114;48.362;10.994;2023-06-26T04:15:59;8.40;;;5.68;;
6163;SDS011;3114;48.362;10.994;2023-06-26T04:18:27;11.27;;;6.47;;
6163;SDS011;3114;48.362;10.994;2023-06-26T04:21:04;7.05;;;5.93;;
6163;SDS011;3114;48.362;10.994;2023-06-26T04:23:33;8.05;;;6.43;;
6163;SDS011;3114;48.362;10.994;2023-06-26T04:26:00;8.75;;;6.57;;
6163;SDS011;3114;48.362;10.994;2023-06-26T04:28:27;8.48;;;6.82;;
6163;SDS011;3114;48.362;10.994;2023-06-26T04:30:54;8.23;;;6.40;;
6163;SDS011;3114;48.362;10.994;2023-06-26T04:33:21;14.18;;;6.78;;
6163;SDS011;3114;48.362;10.994;2023-06-26T04:35:50;8.23;;;6.60;;
6163;SDS011;3114;48.362;10.994;2023-06-26T04:38:17;10.00;;;6.57;;
6163;SDS011;3114;48.362;10.994;2023-06-26T04:40:44;7.38;;;6.50;;
6163;SDS011;3114;48.362;10.994;2023-06-26T04:43:11;7.65;;;6.30;;
6163;SDS011;3114;48.362;10.994;2023-06-26T04:45:38;9.20;;;6.75;;
6163;SDS011;3114;48.362;10.994;2023-06-26T04:48:04;7.40;;;5.85;;
6163;SDS011;3114;48.362;10.994;2023-06-26T04:50:31;8.10;;;6.53;;
6163;SDS011;3114;48.362;10.994;2023-06-26T04:53:01;9.13;;;6.00;;
6163;SDS011;3114;48.362;10.994;2023-06-26T04:55:28;7.80;;;6.10;;
6163;SDS011;3114;48.362;10.994;2023-06-26T04:57:56;8.23;;;6.25;;
6163;SDS011;3114;48.362;10.994;2023-06-26T05:00:23;6.72;;;5.80;;
6163;SDS011;3114;48.362;10.994;2023-06-26T05:02:51;8.23;;;6.57;;
6163;SDS011;3114;48.362;10.994;2023-06-26T05:05:26;10.13;;;7.05;;
6163;SDS011;3114;48.362;10.994;2023-06-26T05:07:53;7.88;;;6.78;;
6163;SDS011;3114;48.362;10.994;2023-06-26T05:10:22;7.25;;;5.97;;
6163;SDS011;3114;48.362;10.994;2023-06-26T05:12:49;8.32;;;6.80;;
6163;SDS011;3114;48.362;10.994;2023-06-26T05:15:16;7.78;;;6.13;;
6163;SDS011;3114;48.362;10.994;2023-06-26T05:17:42;8.13;;;6.30;;
6163;SDS011;3114;48.362;10.994;2023-06-26T05:20:09;10.77;;;6.38;;
6163;SDS011;3114;48.362;10.994;2023-06-26T05:22:37;9.75;;;6.75;;
6163;SDS011;3114;48.362;10.994;2023-06-26T05:25:05;10.25;;;6.63;;
6163;SDS011;3114;48.362;10.994;2023-06-26T05:27:36;10.25;;;6.88;;
6163;SDS011;3114;48.362;10.994;2023-06-26T05:30:04;11.02;;;6.63;;
6163;SDS011;3114;48.362;10.994;2023-06-26T05:32:32;7.55;;;6.00;;
6163;SDS011;3114;48.362;10.994;2023-06-26T05:35:02;7.40;;;5.95;;
6163;SDS011;3114;48.362;10.994;2023-06-26T05:37:30;11.15;;;6.28;;
6163;SDS011;3114;48.362;10.994;2023-06-26T05:39:58;8.30;;;6.70;;
6163;SDS011;3114;48.362;10.994;2023-06-26T05:42:26;9.63;;;6.18;;
6163;SDS011;3114;48.362;10.994;2023-06-26T05:44:55;7.00;;;5.80;;
6163;SDS011;3114;48.362;10.994;2023-06-26T05:47:22;8.95;;;5.75;;
6163;SDS011;3114;48.362;10.994;2023-06-26T05:49:49;10.70;;;6.75;;
6163;SDS011;3114;48.362;10.994;2023-06-26T05:52:16;9.27;;;6.25;;
6163;SDS011;3114;48.362;10.994;2023-06-26T05:54:43;8.40;;;6.68;;
6163;SDS011;3114;48.362;10.994;2023-06-26T05:57:11;10.52;;;6.38;;
6163;SDS011;3114;48.362;10.994;2023-06-26T05:59:40;8.25;;;6.05;;
6163;SDS011;3114;48.362;10.994;2023-06-26T06:02:10;6.95;;;5.70;;
6163;SDS011;3114;48.362;10.994;2023-06-26T06:04:37;8.75;;;6.00;;
6163;SDS011;3114;48.362;10.994;2023-06-26T06:07:04;6.55;;;5.78;;
6163;SDS011;3114;48.362;10.994;2023-06-26T06:09:31;6.75;;;5.53;;
6163;SDS011;3114;48.362;10.994;2023-06-26T06:11:58;7.65;;;6.15;;
6163;SDS011;3114;48.362;10.994;2023-06-26T06:14:26;7.25;;;5.82;;
6163;SDS011;3114;48.362;10.994;2023-06-26T06:16:53;6.88;;;5.95;;
6163;SDS011;3114;48.362;10.994;2023-06-26T06:19:21;6.35;;;5.30;;
6163;SDS011;3114;48.362;10.994;2023-06-26T06:21:48;9.27;;;6.05;;
6163;SDS011;3114;48.362;10.994;2023-06-26T06:24:15;8.77;;;5.57;;
6163;SDS011;3114;48.362;10.994;2023-06-26T06:26:42;8.60;;;6.53;;
6163;SDS011;3114;48.362;10.994;2023-06-26T06:29:08;8.57;;;5.88;;
6163;SDS011;3114;48.362;10.994;2023-06-26T06:31:35;7.85;;;5.85;;
6163;SDS011;3114;48.362;10.994;2023-06-26T06:34:02;7.35;;;6.07;;
6163;SDS011;3114;48.362;10.994;2023-06-26T06:36:30;13.27;;;6.05;;
6163;SDS011;3114;48.362;10.994;2023-06-26T06:38:57;6.65;;;5.72;;
6163;SDS011;3114;48.362;10.994;2023-06-26T06:41:24;9.52;;;6.40;;
6163;SDS011;3114;48.362;10.994;2023-06-26T06:43:51;7.75;;;6.25;;
6163;SDS011;3114;48.362;10.994;2023-06-26T06:46:17;7.70;;;5.70;;
6163;SDS011;3114;48.362;10.994;2023-06-26T06:48:44;8.98;;;6.07;;
6163;SDS011;3114;48.362;10.994;2023-06-26T06:51:12;8.23;;;6.00;;
6163;SDS011;3114;48.362;10.994;2023-06-26T06:53:40;8.93;;;5.93;;
6163;SDS011;3114;48.362;10.994;2023-06-26T06:56:07;8.23;;;5.93;;
6163;SDS011;3114;48.362;10.994;2023-06-26T06:58:33;8.50;;;6.03;;
6163;SDS011;3114;48.362;10.994;2023-06-26T07:01:01;9.32;;;5.63;;
6163;SDS011;3114;48.362;10.994;2023-06-26T07:03:29;7.00;;;5.63;;
6163;SDS011;3114;48.362;10.994;2023-06-26T07:05:56;7.22;;;5.50;;
6163;SDS011;3114;48.362;10.994;2023-06-26T07:08:23;8.35;;;5.65;;
6163;SDS011;3114;48.362;10.994;2023-06-26T07:10:51;7.88;;;5.63;;
6163;SDS011;3114;48.362;10.994;2023-06-26T07:13:18;7.80;;;5.32;;
6163;SDS011;3114;48.362;10.994;2023-06-26T07:15:45;7.05;;;5.82;;
6163;SDS011;3114;48.362;10.994;2023-06-26T07:18:12;7.38;;;5.90;;
6163;SDS011;3114;48.362;10.994;2023-06-26T07:20:39;8.65;;;5.57;;
6163;SDS011;3114;48.362;10.994;2023-06-26T07:23:06;6.80;;;5.55;;
6163;SDS011;3114;48.362;10.994;2023-06-26T07:25:33;6.68;;;5.47;;
6163;SDS011;3114;48.362;10.994;2023-06-26T07:28:01;8.73;;;5.93;;
6163;SDS011;3114;48.362;10.994;2023-06-26T07:30:28;8.35;;;5.68;;
6163;SDS011;3114;48.362;10.994;2023-06-26T07:32:55;8.57;;;5.57;;
6163;SDS011;3114;48.362;10.994;2023-06-26T07:35:22;6.38;;;5.45;;
6163;SDS011;3114;48.362;10.994;2023-06-26T07:37:50;6.35;;;5.40;;
6163;SDS011;3114;48.362;10.994;2023-06-26T07:40:16;6.45;;;5.35;;
6163;SDS011;3114;48.362;10.994;2023-06-26T07:42:43;6.18;;;5.28;;
6163;SDS011;3114;48.362;10.994;2023-06-26T07:45:12;7.63;;;5.78;;
6163;SDS011;3114;48.362;10.994;2023-06-26T07:47:39;7.97;;;5.45;;
6163;SDS011;3114;48.362;10.994;2023-06-26T07:50:06;8.50;;;5.38;;
6163;SDS011;3114;48.362;10.994;2023-06-26T07:52:34;6.93;;;5.45;;
6163;SDS011;3114;48.362;10.994;2023-06-26T07:55:00;6.20;;;4.90;;
6163;SDS011;3114;48.362;10.994;2023-06-26T07:57:28;10.82;;;5.70;;
6163;SDS011;3114;48.362;10.994;2023-06-26T07:59:57;8.75;;;5.63;;
6163;SDS011;3114;48.362;10.994;2023-06-26T08:02:25;7.30;;;5.38;;
6163;SDS011;3114;48.362;10.994;2023-06-26T08:04:52;6.45;;;5.28;;
6163;SDS011;3114;48.362;10.994;2023-06-26T08:07:19;6.13;;;5.05;;
6163;SDS011;3114;48.362;10.994;2023-06-26T08:09:45;8.32;;;4.65;;
6163;SDS011;3114;48.362;10.994;2023-06-26T08:12:12;5.78;;;4.80;;
6163;SDS011;3114;48.362;10.994;2023-06-26T08:14:39;5.18;;;4.57;;
6163;SDS011;3114;48.362;10.994;2023-06-26T08:17:06;6.22;;;4.97;;
6163;SDS011;3114;48.362;10.994;2023-06-26T08:19:34;6.75;;;4.70;;
6163;SDS011;3114;48.362;10.994;2023-06-26T08:22:01;5.40;;;4.90;;
6163;SDS011;3114;48.362;10.994;2023-06-26T08:24:28;6.95;;;5.05;;
6163;SDS011;3114;48.362;10.994;2023-06-26T08:26:55;7.68;;;4.70;;
6163;SDS011;3114;48.362;10.994;2023-06-26T08:29:21;7.32;;;4.80;;
6163;SDS011;3114;48.362;10.994;2023-06-26T08:31:48;5.88;;;4.93;;
6163;SDS011;3114;48.362;10.994;2023-06-26T08:34:15;5.75;;;4.93;;
6163;SDS011;3114;48.362;10.994;2023-06-26T08:36:43;6.10;;;5.07;;
6163;SDS011;3114;48.362;10.994;2023-06-26T08:39:10;9.25;;;4.85;;
6163;SDS011;3114;48.362;10.994;2023-06-26T08:41:37;5.20;;;4.70;;
6163;SDS011;3114;48.362;10.994;2023-06-26T08:44:04;6.15;;;4.80;;
6163;SDS011;3114;48.362;10.994;2023-06-26T08:46:31;6.88;;;4.93;;
6163;SDS011;3114;48.362;10.994;2023-06-26T08:49:00;6.90;;;4.82;;
6163;SDS011;3114;48.362;10.994;2023-06-26T08:51:30;5.15;;;4.50;;
6163;SDS011;3114;48.362;10.994;2023-06-26T08:54:04;5.47;;;4.18;;
6163;SDS011;3114;48.362;10.994;2023-06-26T08:56:35;4.88;;;4.38;;
6163;SDS011;3114;48.362;10.994;2023-06-26T08:59:04;5.63;;;4.43;;
6163;SDS011;3114;48.362;10.994;2023-06-26T09:01:32;4.72;;;3.85;;
6163;SDS011;3114;48.362;10.994;2023-06-26T09:03:59;5.13;;;4.38;;
6163;SDS011;3114;48.362;10.994;2023-06-26T09:06:26;4.30;;;3.90;;
6163;SDS011;3114;48.362;10.994;2023-06-26T09:08:53;5.53;;;3.97;;
6163;SDS011;3114;48.362;10.994;2023-06-26T09:11:22;5.70;;;3.92;;
6163;SDS011;3114;48.362;10.994;2023-06-26T09:13:49;5.10;;;4.13;;
6163;SDS011;3114;48.362;10.994;2023-06-26T09:16:16;5.75;;;4.10;;
6163;SDS011;3114;48.362;10.994;2023-06-26T09:18:44;5.40;;;4.00;;
6163;SDS011;3114;48.362;10.994;2023-06-26T09:21:11;7.30;;;4.05;;
6163;SDS011;3114;48.362;10.994;2023-06-26T09:23:40;5.38;;;4.05;;
6163;SDS011;3114;48.362;10.994;2023-06-26T09:26:07;5.90;;;3.95;;
6163;SDS011;3114;48.362;10.994;2023-06-26T09:28:35;5.97;;;3.80;;
6163;SDS011;3114;48.362;10.994;2023-06-26T09:31:03;4.40;;;4.00;;
6163;SDS011;3114;48.362;10.994;2023-06-26T09:33:33;4.60;;;4.20;;
6163;SDS011;3114;48.362;10.994;2023-06-26T09:36:02;5.03;;;4.20;;
6163;SDS011;3114;48.362;10.994;2023-06-26T09:38:32;6.82;;;3.88;;
6163;SDS011;3114;48.362;10.994;2023-06-26T09:41:00;4.80;;;4.20;;
6163;SDS011;3114;48.362;10.994;2023-06-26T09:43:27;4.30;;;3.78;;
6163;SDS011;3114;48.362;10.994;2023-06-26T09:45:55;5.65;;;4.07;;
6163;SDS011;3114;48.362;10.994;2023-06-26T09:48:22;6.55;;;3.72;;
6163;SDS011;3114;48.362;10.994;2023-06-26T09:50:49;4.25;;;3.85;;
6163;SDS011;3114;48.362;10.994;2023-06-26T09:53:15;3.85;;;3.42;;
6163;SDS011;3114;48.362;10.994;2023-06-26T09:55:43;7.25;;;3.55;;
6163;SDS011;3114;48.362;10.994;2023-06-26T09:58:12;4.40;;;4.00;;
6163;SDS011;3114;48.362;10.994;2023-06-26T10:00:40;6.80;;;3.55;;
6163;SDS011;3114;48.362;10.994;2023-06-26T10:03:09;4.70;;;4.20;;
6163;SDS011;3114;48.362;10.994;2023-06-26T10:05:37;4.22;;;3.72;;
6163;SDS011;3114;48.362;10.994;2023-06-26T10:08:04;5.93;;;4.25;;
6163;SDS011;3114;48.362;10.994;2023-06-26T10:10:33;7.57;;;3.88;;
6163;SDS011;3114;48.362;10.994;2023-06-26T10:13:04;6.65;;;4.20;;
6163;SDS011;3114;48.362;10.994;2023-06-26T10:15:34;4.78;;;3.92;;
6163;SDS011;3114;48.362;10.994;2023-06-26T10:18:03;5.72;;;4.07;;
6163;SDS011;3114;48.362;10.994;2023-06-26T10:20:31;4.75;;;4.05;;
6163;SDS011;3114;48.362;10.994;2023-06-26T10:23:00;4.28;;;3.88;;
6163;SDS011;3114;48.362;10.994;2023-06-26T10:25:28;5.35;;;3.90;;
6163;SDS011;3114;48.362;10.994;2023-06-26T10:27:58;5.93;;;4.32;;
6163;SDS011;3114;48.362;10.994;2023-06-26T10:30:29;4.68;;;3.92;;
6163;SDS011;3114;48.362;10.994;2023-06-26T10:33:01;4.50;;;4.10;;
6163;SDS011;3114;48.362;10.994;2023-06-26T10:35:31;4.60;;;3.67;;
6163;SDS011;3114;48.362;10.994;2023-06-26T10:38:02;6.07;;;4.00;;
6163;SDS011;3114;48.362;10.994;2023-06-26T10:40:39;4.72;;;3.85;;
6163;SDS011;3114;48.362;10.994;2023-06-26T10:43:07;4.03;;;3.67;;
6163;SDS011;3114;48.362;10.994;2023-06-26T10:45:35;3.97;;;3.58;;
6163;SDS011;3114;48.362;10.994;2023-06-26T10:48:02;4.28;;;3.85;;
6163;SDS011;3114;48.362;10.994;2023-06-26T10:50:30;4.57;;;3.88;;
6163;SDS011;3114;48.362;10.994;2023-06-26T10:53:07;4.10;;;3.70;;
6163;SDS011;3114;48.362;10.994;2023-06-26T10:55:34;4.15;;;3.75;;
6163;SDS011;3114;48.362;10.994;2023-06-26T10:58:02;5.32;;;3.53;;
6163;SDS011;3114;48.362;10.994;2023-06-26T11:00:29;4.13;;;3.72;;
6163;SDS011;3114;48.362;10.994;2023-06-26T11:02:56;4.15;;;3.75;;
6163;SDS011;3114;48.362;10.994;2023-06-26T11:05:25;5.88;;;4.20;;
6163;SDS011;3114;48.362;10.994;2023-06-26T11:08:04;4.60;;;4.18;;
6163;SDS011;3114;48.362;10.994;2023-06-26T11:13:21;3.78;;;3.40;;
6163;SDS011;3114;48.362;10.994;2023-06-26T11:15:48;5.13;;;3.90;;
6163;SDS011;3114;48.362;10.994;2023-06-26T11:18:16;4.38;;;3.97;;
6163;SDS011;3114;48.362;10.994;2023-06-26T11:20:43;4.35;;;3.95;;
6163;SDS011;3114;48.362;10.994;2023-06-26T11:23:11;6.57;;;3.72;;
6163;SDS011;3114;48.362;10.994;2023-06-26T11:25:39;4.28;;;3.88;;
6163;SDS011;3114;48.362;10.994;2023-06-26T11:28:05;5.93;;;4.40;;
6163;SDS011;3114;48.362;10.994;2023-06-26T11:30:36;5.15;;;4.65;;
6163;SDS011;3114;48.362;10.994;2023-06-26T11:33:04;5.38;;;4.47;;
6163;SDS011;3114;48.362;10.994;2023-06-26T11:35:32;4.65;;;4.25;;
6163;SDS011;3114;48.362;10.994;2023-06-26T11:38:00;5.32;;;4.53;;
6163;SDS011;3114;48.362;10.994;2023-06-26T11:40:32;4.93;;;4.43;;
6163;SDS011;3114;48.362;10.994;2023-06-26T11:43:00;5.35;;;4.47;;
6163;SDS011;3114;48.362;10.994;2023-06-26T11:45:28;5.60;;;4.60;;
6163;SDS011;3114;48.362;10.994;2023-06-26T11:47:56;6.65;;;4.53;;
6163;SDS011;3114;48.362;10.994;2023-06-26T11:50:23;6.22;;;4.38;;
6163;SDS011;3114;48.362;10.994;2023-06-26T11:52:53;8.65;;;4.82;;
6163;SDS011;3114;48.362;10.994;2023-06-26T11:55:21;7.43;;;4.72;;
6163;SDS011;3114;48.362;10.994;2023-06-26T11:57:50;6.00;;;4.50;;
6163;SDS011;3114;48.362;10.994;2023-06-26T12:00:19;5.10;;;4.60;;
6163;SDS011;3114;48.362;10.994;2023-06-26T12:02:47;5.32;;;4.82;;
6163;SDS011;3114;48.362;10.994;2023-06-26T12:05:15;6.18;;;4.88;;
6163;SDS011;3114;48.362;10.994;2023-06-26T12:07:42;5.07;;;4.57;;
6163;SDS011;3114;48.362;10.994;2023-06-26T12:10:12;5.97;;;4.60;;
6163;SDS011;3114;48.362;10.994;2023-06-26T12:12:40;4.80;;;4.35;;
6163;SDS011;3114;48.362;10.994;2023-06-26T12:15:12;5.20;;;4.47;;
6163;SDS011;3114;48.362;10.994;2023-06-26T12:17:40;4.80;;;4.18;;
6163;SDS011;3114;48.362;10.994;2023-06-26T12:20:17;5.28;;;4.38;;
6163;SDS011;3114;48.362;10.994;2023-06-26T12:22:45;5.93;;;3.97;;
6163;SDS011;3114;48.362;10.994;2023-06-26T12:25:13;5.20;;;4.10;;
6163;SDS011;3114;48.362;10.994;2023-06-26T12:27:41;4.70;;;4.30;;
6163;SDS011;3114;48.362;10.994;2023-06-26T12:30:12;4.25;;;3.85;;
6163;SDS011;3114;48.362;10.994;2023-06-26T12:32:40;4.35;;;4.03;;
6163;SDS011;3114;48.362;10.994;2023-06-26T12:35:09;4.68;;;3.67;;
6163;SDS011;3114;48.362;10.994;2023-06-26T12:37:36;7.07;;;4.15;;
6163;SDS011;3114;48.362;10.994;2023-06-26T12:40:09;4.60;;;4.20;;
6163;SDS011;3114;48.362;10.994;2023-06-26T12:42:42;5.97;;;4.40;;
6163;SDS011;3114;48.362;10.994;2023-06-26T12:45:11;4.43;;;3.85;;
6163;SDS011;3114;48.362;10.994;2023-06-26T12:47:39;6.10;;;4.25;;
6163;SDS011;3114;48.362;10.994;2023-06-26T12:50:07;4.72;;;4.30;;
6163;SDS011;3114;48.362;10.994;2023-06-26T12:52:34;5.35;;;4.38;;
6163;SDS011;3114;48.362;10.994;2023-06-26T12:55:01;4.53;;;4.13;;
6163;SDS011;3114;48.362;10.994;2023-06-26T12:57:28;7.00;;;4.40;;
6163;SDS011;3114;48.362;10.994;2023-06-26T12:59:55;4.60;;;4.07;;
6163;SDS011;3114;48.362;10.994;2023-06-26T13:02:23;4.65;;;4.20;;
6163;SDS011;3114;48.362;10.994;2023-06-26T13:04:50;8.65;;;4.53;;
6163;SDS011;3114;48.362;10.994;2023-06-26T13:07:17;4.68;;;4.28;;
6163;SDS011;3114;48.362;10.994;2023-06-26T13:09:44;6.47;;;4.10;;
6163;SDS011;3114;48.362;10.994;2023-06-26T13:12:13;6.47;;;4.88;;
6163;SDS011;3114;48.362;10.994;2023-06-26T13:14:40;4.63;;;4.25;;
6163;SDS011;3114;48.362;10.994;2023-06-26T13:17:06;5.20;;;4.65;;
6163;SDS011;3114;48.362;10.994;2023-06-26T13:19:35;5.40;;;4.90;;
6163;SDS011;3114;48.362;10.994;2023-06-26T13:22:01;4.80;;;4.30;;
6163;SDS011;3114;48.362;10.994;2023-06-26T13:24:28;4.40;;;4.00;;
6163;SDS011;3114;48.362;10.994;2023-06-26T13:26:55;6.75;;;4.63;;
6163;SDS011;3114;48.362;10.994;2023-06-26T13:29:22;5.72;;;4.65;;
6163;SDS011;3114;48.362;10.994;2023-06-26T13:31:49;4.50;;;4.18;;
6163;SDS011;3114;48.362;10.994;2023-06-26T13:34:22;4.43;;;4.03;;
6163;SDS011;3114;48.362;10.994;2023-06-26T13:36:53;4.72;;;4.32;;
6163;SDS011;3114;48.362;10.994;2023-06-26T13:39:20;5.75;;;3.95;;
6163;SDS011;3114;48.362;10.994;2023-06-26T13:41:47;5.20;;;4.70;;
6163;SDS011;3114;48.362;10.994;2023-06-26T13:44:14;5.93;;;4.63;;
6163;SDS011;3114;48.362;10.994;2023-06-26T13:46:41;5.18;;;4.32;;
6163;SDS011;3114;48.362;10.994;2023-06-26T13:49:08;5.25;;;4.75;;
6163;SDS011;3114;48.362;10.994;2023-06-26T13:51:35;7.30;;;4.57;;
6163;SDS011;3114;48.362;10.994;2023-06-26T13:54:03;4.70;;;4.30;;
6163;SDS011;3114;48.362;10.994;2023-06-26T13:56:30;5.20;;;4.80;;
6163;SDS011;3114;48.362;10.994;2023-06-26T13:58:56;5.55;;;4.95;;
6163;SDS011;3114;48.362;10.994;2023-06-26T14:01:24;5.40;;;4.55;;
6163;SDS011;3114;48.362;10.994;2023-06-26T14:03:51;4.68;;;4.28;;
6163;SDS011;3114;48.362;10.994;2023-06-26T14:06:18;5.13;;;4.45;;
6163;SDS011;3114;48.362;10.994;2023-06-26T14:08:45;7.57;;;4.68;;
6163;SDS011;3114;48.362;10.994;2023-06-26T14:11:13;5.28;;;4.78;;
6163;SDS011;3114;48.362;10.994;2023-06-26T14:13:41;4.93;;;4.45;;
6163;SDS011;3114;48.362;10.994;2023-06-26T14:16:08;5.45;;;4.95;;
6163;SDS011;3114;48.362;10.994;2023-06-26T14:18:34;5.32;;;4.55;;
6163;SDS011;3114;48.362;10.994;2023-06-26T14:21:01;8.10;;;5.10;;
6163;SDS011;3114;48.362;10.994;2023-06-26T14:23:29;5.20;;;4.60;;
6163;SDS011;3114;48.362;10.994;2023-06-26T14:25:55;7.85;;;4.80;;
6163;SDS011;3114;48.362;10.994;2023-06-26T14:28:23;6.80;;;4.70;;
6163;SDS011;3114;48.362;10.994;2023-06-26T14:30:50;4.93;;;4.05;;
6163;SDS011;3114;48.362;10.994;2023-06-26T14:33:17;5.70;;;4.82;;
6163;SDS011;3114;48.362;10.994;2023-06-26T14:35:44;5.82;;;4.70;;
6163;SDS011;3114;48.362;10.994;2023-06-26T14:38:11;5.00;;;4.53;;
6163;SDS011;3114;48.362;10.994;2023-06-26T14:40:38;4.97;;;4.55;;
6163;SDS011;3114;48.362;10.994;2023-06-26T14:43:04;5.55;;;4.60;;
6163;SDS011;3114;48.362;10.994;2023-06-26T14:45:33;6.20;;;4.80;;
6163;SDS011;3114;48.362;10.994;2023-06-26T14:47:59;5.85;;;4.60;;
6163;SDS011;3114;48.362;10.994;2023-06-26T14:50:26;5.15;;;4.65;;
6163;SDS011;3114;48.362;10.994;2023-06-26T14:52:53;5.60;;;4.70;;
6163;SDS011;3114;48.362;10.994;2023-06-26T14:55:20;5.85;;;5.05;;
6163;SDS011;3114;48.362;10.994;2023-06-26T14:57:46;6.72;;;4.82;;
6163;SDS011;3114;48.362;10.994;2023-06-26T15:00:14;6.13;;;4.75;;
6163;SDS011;3114;48.362;10.994;2023-06-26T15:02:43;5.05;;;4.55;;
6163;SDS011;3114;48.362;10.994;2023-06-26T15:05:09;6.35;;;4.65;;
6163;SDS011;3114;48.362;10.994;2023-06-26T15:07:36;7.20;;;4.78;;